sensor_id;sensor_type;location;lat;lon;timestamp;pressure;altitude;pressure_sealevel;temperature;humidity
37486;BME280;23341;50.296;18.960;2023-02-28T00:00:35;46088.22;;;-144.43;65.08
37486;BME280;23341;50.296;18.960;2023-02-28T00:05:53;46098.19;;;-144.43;65.51
37486;BME280;23341;50.296;18.960;2023-02-28T00:11:01;46080.22;;;-144.43;65.15
37486;BME280;23341;50.296;18.960;2023-02-28T00:16:10;46056.28;;;-144.43;65.50
37486;BME280;23341;50.296;18.960;2023-02-28T00:21:16;46076.25;;;-144.43;66.22
37486;BME280;23341;50.296;18.960;2023-02-28T00:26:20;46082.22;;;-144.43;66.58
37486;BME280;23341;50.296;18.960;2023-02-28T00:31:26;46064.25;;;-144.43;66.97
37486;BME280;23341;50.296;18.960;2023-02-28T00:36:30;46094.22;;;-144.43;67.66
37486;BME280;23341;50.296;18.960;2023-02-28T00:41:37;46056.28;;;-144.43;67.74
37486;BME280;23341;50.296;18.960;2023-02-28T00:46:43;46100.19;;;-144.43;68.80
37486;BME280;23341;50.296;18.960;2023-02-28T00:51:48;46056.28;;;-144.43;68.56
37486;BME280;23341;50.296;18.960;2023-02-28T00:56:54;46096.22;;;-144.43;69.69
37486;BME280;23341;50.296;18.960;2023-02-28T01:02:01;46058.25;;;-144.43;69.35
37486;BME280;23341;50.296;18.960;2023-02-28T01:07:05;46068.25;;;-144.43;68.95
37486;BME280;23341;50.296;18.960;2023-02-28T01:12:10;46002.34;;;-144.43;69.12
37486;BME280;23341;50.296;18.960;2023-02-28T01:17:16;46056.28;;;-144.43;70.04
37486;BME280;23341;50.296;18.960;2023-02-28T01:22:20;46038.28;;;-144.43;70.61
37486;BME280;23341;50.296;18.960;2023-02-28T01:27:24;46000.34;;;-144.43;70.70
37486;BME280;23341;50.296;18.960;2023-02-28T01:32:30;46002.34;;;-144.43;71.04
37486;BME280;23341;50.296;18.960;2023-02-28T01:37:34;46020.31;;;-144.43;71.39
37486;BME280;23341;50.296;18.960;2023-02-28T01:42:39;46024.31;;;-144.43;72.52
37486;BME280;23341;50.296;18.960;2023-02-28T01:47:45;45984.38;;;-144.43;72.84
37486;BME280;23341;50.296;18.960;2023-02-28T01:52:52;45950.44;;;-144.43;73.12
37486;BME280;23341;50.296;18.960;2023-02-28T01:58:00;45986.38;;;-144.43;74.99
37486;BME280;23341;50.296;18.960;2023-02-28T02:03:09;46026.31;;;-144.43;75.38
37486;BME280;23341;50.296;18.960;2023-02-28T02:08:19;45996.34;;;-144.43;76.29
37486;BME280;23341;50.296;18.960;2023-02-28T02:13:46;45992.38;;;-144.43;77.89
37486;BME280;23341;50.296;18.960;2023-02-28T02:19:02;46026.31;;;-144.43;78.12
37486;BME280;23341;50.296;18.960;2023-02-28T02:24:48;45988.38;;;-144.43;79.34
37486;BME280;23341;50.296;18.960;2023-02-28T02:30:28;45990.38;;;-144.43;79.65
37486;BME280;23341;50.296;18.960;2023-02-28T02:35:43;45966.41;;;-144.43;80.66
37486;BME280;23341;50.296;18.960;2023-02-28T02:41:04;45970.41;;;-144.43;80.96
37486;BME280;23341;50.296;18.960;2023-02-28T02:46:14;45972.41;;;-144.43;81.66
37486;BME280;23341;50.296;18.960;2023-02-28T02:51:22;45958.41;;;-144.43;82.66
37486;BME280;23341;50.296;18.960;2023-02-28T02:56:29;45942.44;;;-144.43;83.99
37486;BME280;23341;50.296;18.960;2023-02-28T03:01:38;45924.47;;;-144.43;84.00
37486;BME280;23341;50.296;18.960;2023-02-28T03:06:44;45870.56;;;-144.43;85.28
37486;BME280;23341;50.296;18.960;2023-02-28T03:11:51;45918.47;;;-144.43;84.83
37486;BME280;23341;50.296;18.960;2023-02-28T03:17:05;45936.44;;;-144.43;85.24
37486;BME280;23341;50.296;18.960;2023-02-28T03:22:59;45930.47;;;-144.43;84.57
37486;BME280;23341;50.296;18.960;2023-02-28T03:28:11;45902.50;;;-144.43;84.77
37486;BME280;23341;50.296;18.960;2023-02-28T03:33:21;45906.50;;;-144.43;85.57
37486;BME280;23341;50.296;18.960;2023-02-28T03:38:33;45866.56;;;-144.43;85.95
37486;BME280;23341;50.296;18.960;2023-02-28T03:43:41;45872.56;;;-144.43;86.84
37486;BME280;23341;50.296;18.960;2023-02-28T03:48:48;45882.53;;;-144.43;86.48
37486;BME280;23341;50.296;18.960;2023-02-28T03:53:59;45858.56;;;-144.43;87.63
37486;BME280;23341;50.296;18.960;2023-02-28T03:59:13;45838.59;;;-144.43;87.84
37486;BME280;23341;50.296;18.960;2023-02-28T04:04:19;45864.56;;;-144.43;87.89
37486;BME280;23341;50.296;18.960;2023-02-28T04:09:25;45814.66;;;-144.43;87.65
37486;BME280;23341;50.296;18.960;2023-02-28T04:14:29;45842.59;;;-144.43;87.46
37486;BME280;23341;50.296;18.960;2023-02-28T04:19:33;45816.63;;;-144.43;88.44
37486;BME280;23341;50.296;18.960;2023-02-28T04:24:40;45794.69;;;-144.43;89.17
37486;BME280;23341;50.296;18.960;2023-02-28T04:29:45;45778.69;;;-144.43;89.51
37486;BME280;23341;50.296;18.960;2023-02-28T04:34:50;45756.72;;;-144.43;90.03
37486;BME280;23341;50.296;18.960;2023-02-28T04:39:56;45788.69;;;-144.43;89.68
37486;BME280;23341;50.296;18.960;2023-02-28T04:45:01;45758.72;;;-144.43;89.10
37486;BME280;23341;50.296;18.960;2023-02-28T04:50:06;45758.72;;;-144.43;89.34
37486;BME280;23341;50.296;18.960;2023-02-28T04:55:12;45718.78;;;-144.43;90.34
37486;BME280;23341;50.296;18.960;2023-02-28T05:00:17;45718.78;;;-144.43;89.90
37486;BME280;23341;50.296;18.960;2023-02-28T05:05:21;45742.75;;;-144.43;89.64
37486;BME280;23341;50.296;18.960;2023-02-28T05:10:27;45702.81;;;-144.43;90.88
37486;BME280;23341;50.296;18.960;2023-02-28T05:15:32;45654.91;;;-144.43;91.43
37486;BME280;23341;50.296;18.960;2023-02-28T05:20:37;45686.84;;;-144.43;91.21
37486;BME280;23341;50.296;18.960;2023-02-28T05:25:43;45654.91;;;-144.43;91.31
37486;BME280;23341;50.296;18.960;2023-02-28T05:30:48;45630.94;;;-144.43;91.82
37486;BME280;23341;50.296;18.960;2023-02-28T05:35:52;45618.97;;;-144.43;92.61
37486;BME280;23341;50.296;18.960;2023-02-28T05:40:58;45577.03;;;-144.43;92.98
37486;BME280;23341;50.296;18.960;2023-02-28T05:46:04;45569.03;;;-144.43;92.22
37486;BME280;23341;50.296;18.960;2023-02-28T05:51:09;45551.06;;;-144.43;91.97
37486;BME280;23341;50.296;18.960;2023-02-28T05:56:15;45557.06;;;-144.43;92.50
37486;BME280;23341;50.296;18.960;2023-02-28T06:01:24;45539.09;;;-144.43;92.14
37486;BME280;23341;50.296;18.960;2023-02-28T06:06:34;45563.06;;;-144.43;91.96
37486;BME280;23341;50.296;18.960;2023-02-28T06:11:42;45509.13;;;-144.43;92.34
37486;BME280;23341;50.296;18.960;2023-02-28T06:16:46;45461.22;;;-144.43;91.42
37486;BME280;23341;50.296;18.960;2023-02-28T06:21:51;45467.22;;;-144.43;85.35
37486;BME280;23341;50.296;18.960;2023-02-28T06:26:58;45485.19;;;-144.43;77.24
37486;BME280;23341;50.296;18.960;2023-02-28T06:32:08;45541.09;;;-144.43;72.79
37486;BME280;23341;50.296;18.960;2023-02-28T06:37:12;45541.09;;;-144.43;70.48
37486;BME280;23341;50.296;18.960;2023-02-28T06:42:18;45591.00;;;-144.43;67.40
37486;BME280;23341;50.296;18.960;2023-02-28T06:47:22;45604.97;;;-144.43;64.55
37486;BME280;23341;50.296;18.960;2023-02-28T06:52:27;45654.91;;;-144.43;63.16
37486;BME280;23341;50.296;18.960;2023-02-28T06:57:34;45610.97;;;-144.43;61.84
37486;BME280;23341;50.296;18.960;2023-02-28T07:02:39;45654.91;;;-144.43;60.18
37486;BME280;23341;50.296;18.960;2023-02-28T07:07:43;45557.06;;;-144.43;56.29
37486;BME280;23341;50.296;18.960;2023-02-28T07:12:50;45545.06;;;-144.43;46.93
37486;BME280;23341;50.296;18.960;2023-02-28T07:17:55;45630.94;;;-144.43;48.04
37486;BME280;23341;50.296;18.960;2023-02-28T07:23:00;45698.81;;;-144.43;43.08
37486;BME280;23341;50.296;18.960;2023-02-28T07:28:06;45854.59;;;-144.43;41.69
37486;BME280;23341;50.296;18.960;2023-02-28T07:33:10;45814.66;;;-144.43;39.94
37486;BME280;23341;50.296;18.960;2023-02-28T07:38:15;46104.19;;;-144.43;39.30
37486;BME280;23341;50.296;18.960;2023-02-28T07:43:20;46222.03;;;-144.43;42.90
37486;BME280;23341;50.296;18.960;2023-02-28T07:48:25;46249.97;;;-144.43;43.62
37486;BME280;23341;50.296;18.960;2023-02-28T07:53:29;46297.91;;;-144.43;44.59
37486;BME280;23341;50.296;18.960;2023-02-28T07:58:36;46305.91;;;-144.43;45.55
37486;BME280;23341;50.296;18.960;2023-02-28T08:03:40;46335.84;;;-144.43;47.42
37486;BME280;23341;50.296;18.960;2023-02-28T08:08:45;46365.81;;;-144.43;47.22
37486;BME280;23341;50.296;18.960;2023-02-28T08:13:51;46397.75;;;-144.43;48.06
37486;BME280;23341;50.296;18.960;2023-02-28T08:18:55;46491.63;;;-144.43;49.12
37486;BME280;23341;50.296;18.960;2023-02-28T08:23:59;46509.59;;;-144.43;52.87
37486;BME280;23341;50.296;18.960;2023-02-28T08:29:05;46455.69;;;-144.43;53.26
37486;BME280;23341;50.296;18.960;2023-02-28T08:34:12;46473.66;;;-144.43;51.58
37486;BME280;23341;50.296;18.960;2023-02-28T08:39:17;46491.63;;;-144.43;49.54
37486;BME280;23341;50.296;18.960;2023-02-28T08:44:24;46509.59;;;-144.43;49.00
37486;BME280;23341;50.296;18.960;2023-02-28T08:49:28;46521.59;;;-144.43;49.39
37486;BME280;23341;50.296;18.960;2023-02-28T08:54:32;46455.69;;;-144.43;48.89
37486;BME280;23341;50.296;18.960;2023-02-28T08:59:38;46433.72;;;-144.43;46.32
37486;BME280;23341;50.296;18.960;2023-02-28T09:04:42;46505.59;;;-144.43;45.13
37486;BME280;23341;50.296;18.960;2023-02-28T09:09:48;46489.63;;;-144.43;47.84
37486;BME280;23341;50.296;18.960;2023-02-28T09:14:59;46497.63;;;-144.43;46.72
37486;BME280;23341;50.296;18.960;2023-02-28T09:20:04;46409.75;;;-144.43;46.53
37486;BME280;23341;50.296;18.960;2023-02-28T09:25:09;46447.69;;;-144.43;45.74
37486;BME280;23341;50.296;18.960;2023-02-28T09:30:15;46453.69;;;-144.43;44.29
37486;BME280;23341;50.296;18.960;2023-02-28T09:35:20;46551.53;;;-144.43;46.31
37486;BME280;23341;50.296;18.960;2023-02-28T09:40:26;46533.56;;;-144.43;47.29
37486;BME280;23341;50.296;18.960;2023-02-28T09:45:35;46557.53;;;-144.43;49.53
37486;BME280;23341;50.296;18.960;2023-02-28T09:50:42;46473.66;;;-144.43;49.44
37486;BME280;23341;50.296;18.960;2023-02-28T09:55:51;46495.63;;;-144.43;48.88
37486;BME280;23341;50.296;18.960;2023-02-28T10:01:03;46515.59;;;-144.43;47.31
37486;BME280;23341;50.296;18.960;2023-02-28T10:06:14;46535.56;;;-144.43;48.32
37486;BME280;23341;50.296;18.960;2023-02-28T10:11:21;46513.59;;;-144.43;48.16
37486;BME280;23341;50.296;18.960;2023-02-28T10:16:31;46485.63;;;-144.43;47.50
37486;BME280;23341;50.296;18.960;2023-02-28T10:21:41;46599.47;;;-144.43;48.35
37486;BME280;23341;50.296;18.960;2023-02-28T10:26:47;46517.59;;;-144.43;48.28
37486;BME280;23341;50.296;18.960;2023-02-28T10:31:54;46471.66;;;-144.43;46.31
37486;BME280;23341;50.296;18.960;2023-02-28T10:36:59;46409.75;;;-144.43;45.90
37486;BME280;23341;50.296;18.960;2023-02-28T10:42:22;46283.94;;;-144.43;43.75
37486;BME280;23341;50.296;18.960;2023-02-28T10:47:30;46401.75;;;-144.43;42.29
37486;BME280;23341;50.296;18.960;2023-02-28T10:52:38;46365.81;;;-144.43;45.03
37486;BME280;23341;50.296;18.960;2023-02-28T10:57:43;46287.91;;;-144.43;43.87
37486;BME280;23341;50.296;18.960;2023-02-28T11:02:49;46265.97;;;-144.43;42.30
37486;BME280;23341;50.296;18.960;2023-02-28T11:07:55;46353.81;;;-144.43;42.63
37486;BME280;23341;50.296;18.960;2023-02-28T11:27:25;46457.69;;;-144.43;45.53
37486;BME280;23341;50.296;18.960;2023-02-28T11:32:30;46437.72;;;-144.43;44.81
37486;BME280;23341;50.296;18.960;2023-02-28T11:37:35;46361.81;;;-144.43;45.67
37486;BME280;23341;50.296;18.960;2023-02-28T11:42:59;46269.94;;;-144.43;45.01
37486;BME280;23341;50.296;18.960;2023-02-28T11:48:15;46365.81;;;-144.43;44.48
37486;BME280;23341;50.296;18.960;2023-02-28T11:53:41;46325.88;;;-144.43;45.25
37486;BME280;23341;50.296;18.960;2023-02-28T11:58:58;46333.84;;;-144.43;45.99
37486;BME280;23341;50.296;18.960;2023-02-28T12:04:24;46299.91;;;-144.43;43.60
37486;BME280;23341;50.296;18.960;2023-02-28T12:09:46;46361.81;;;-144.43;43.34
37486;BME280;23341;50.296;18.960;2023-02-28T12:15:13;46351.81;;;-144.43;43.65
37486;BME280;23341;50.296;18.960;2023-02-28T12:20:26;46357.81;;;-144.43;44.07
37486;BME280;23341;50.296;18.960;2023-02-28T12:25:52;46397.75;;;-144.43;44.76
37486;BME280;23341;50.296;18.960;2023-02-28T12:31:03;46417.72;;;-144.43;43.76
37486;BME280;23341;50.296;18.960;2023-02-28T12:36:11;46353.81;;;-144.43;46.51
37486;BME280;23341;50.296;18.960;2023-02-28T12:41:24;46351.81;;;-144.43;44.74
37486;BME280;23341;50.296;18.960;2023-02-28T12:46:36;46353.81;;;-144.43;43.70
37486;BME280;23341;50.296;18.960;2023-02-28T12:51:43;46353.81;;;-144.43;43.82
37486;BME280;23341;50.296;18.960;2023-02-28T12:56:54;46371.81;;;-144.43;44.02
37486;BME280;23341;50.296;18.960;2023-02-28T13:02:32;46367.81;;;-144.43;43.75
37486;BME280;23341;50.296;18.960;2023-02-28T13:08:09;46381.78;;;-144.43;43.01
37486;BME280;23341;50.296;18.960;2023-02-28T13:13:21;46385.78;;;-144.43;43.45
37486;BME280;23341;50.296;18.960;2023-02-28T13:18:33;46397.75;;;-144.43;43.42
37486;BME280;23341;50.296;18.960;2023-02-28T13:23:56;46351.81;;;-144.43;43.21
37486;BME280;23341;50.296;18.960;2023-02-28T13:29:02;46397.75;;;-144.43;41.91
37486;BME280;23341;50.296;18.960;2023-02-28T13:34:16;46415.75;;;-144.43;41.76
37486;BME280;23341;50.296;18.960;2023-02-28T13:39:45;46411.75;;;-144.43;41.64
37486;BME280;23341;50.296;18.960;2023-02-28T13:45:21;46393.78;;;-144.43;42.19
37486;BME280;23341;50.296;18.960;2023-02-28T13:50:33;46409.75;;;-144.43;41.89
37486;BME280;23341;50.296;18.960;2023-02-28T13:55:45;46377.78;;;-144.43;42.92
37486;BME280;23341;50.296;18.960;2023-02-28T14:01:04;46409.75;;;-144.43;42.88
37486;BME280;23341;50.296;18.960;2023-02-28T14:06:24;46387.78;;;-144.43;42.53
37486;BME280;23341;50.296;18.960;2023-02-28T14:11:33;46317.88;;;-144.43;40.43
37486;BME280;23341;50.296;18.960;2023-02-28T14:16:41;46373.78;;;-144.43;39.89
37486;BME280;23341;50.296;18.960;2023-02-28T14:22:01;46449.69;;;-144.43;42.91
37486;BME280;23341;50.296;18.960;2023-02-28T14:27:32;46409.75;;;-144.43;41.37
37486;BME280;23341;50.296;18.960;2023-02-28T14:32:45;46345.84;;;-144.43;39.88
37486;BME280;23341;50.296;18.960;2023-02-28T14:37:53;46377.78;;;-144.43;40.87
37486;BME280;23341;50.296;18.960;2023-02-28T14:42:59;46381.78;;;-144.43;41.20
37486;BME280;23341;50.296;18.960;2023-02-28T14:48:05;46415.75;;;-144.43;41.28
37486;BME280;23341;50.296;18.960;2023-02-28T14:53:17;46445.69;;;-144.43;42.90
37486;BME280;23341;50.296;18.960;2023-02-28T14:58:26;46465.66;;;-144.43;40.88
37486;BME280;23341;50.296;18.960;2023-02-28T15:03:32;46495.63;;;-144.43;42.49
37486;BME280;23341;50.296;18.960;2023-02-28T15:08:39;46473.66;;;-144.43;42.32
37486;BME280;23341;50.296;18.960;2023-02-28T15:13:46;46505.59;;;-144.43;42.54
37486;BME280;23341;50.296;18.960;2023-02-28T15:18:53;46491.63;;;-144.43;43.97
37486;BME280;23341;50.296;18.960;2023-02-28T15:24:03;46525.59;;;-144.43;45.65
37486;BME280;23341;50.296;18.960;2023-02-28T15:29:13;46519.59;;;-144.43;46.17
37486;BME280;23341;50.296;18.960;2023-02-28T15:34:20;46525.59;;;-144.43;45.03
37486;BME280;23341;50.296;18.960;2023-02-28T15:39:31;46649.41;;;-144.43;47.87
37486;BME280;23341;50.296;18.960;2023-02-28T15:44:45;46631.44;;;-144.43;49.35
37486;BME280;23341;50.296;18.960;2023-02-28T15:49:52;46663.38;;;-144.43;49.76
37486;BME280;23341;50.296;18.960;2023-02-28T15:54:59;46663.38;;;-144.43;50.32
37486;BME280;23341;50.296;18.960;2023-02-28T16:00:12;46661.41;;;-144.43;51.92
37486;BME280;23341;50.296;18.960;2023-02-28T16:05:23;46659.41;;;-144.43;51.87
37486;BME280;23341;50.296;18.960;2023-02-28T16:10:34;46657.41;;;-144.43;53.14
37486;BME280;23341;50.296;18.960;2023-02-28T16:15:42;46663.38;;;-144.43;53.70
37486;BME280;23341;50.296;18.960;2023-02-28T16:20:47;46699.34;;;-144.43;54.63
37486;BME280;23341;50.296;18.960;2023-02-28T16:25:52;46667.38;;;-144.43;54.36
37486;BME280;23341;50.296;18.960;2023-02-28T16:30:57;46671.38;;;-144.43;54.43
37486;BME280;23341;50.296;18.960;2023-02-28T16:36:06;46697.34;;;-144.43;55.32
37486;BME280;23341;50.296;18.960;2023-02-28T16:41:16;46667.38;;;-144.43;55.70
37486;BME280;23341;50.296;18.960;2023-02-28T16:46:21;46729.31;;;-144.43;55.44
37486;BME280;23341;50.296;18.960;2023-02-28T16:51:26;46729.31;;;-144.43;55.85
37486;BME280;23341;50.296;18.960;2023-02-28T16:56:33;46669.38;;;-144.43;56.49
37486;BME280;23341;50.296;18.960;2023-02-28T17:01:38;46637.44;;;-144.43;58.81
37486;BME280;23341;50.296;18.960;2023-02-28T17:06:42;46675.38;;;-144.43;58.88
37486;BME280;23341;50.296;18.960;2023-02-28T17:11:48;46673.38;;;-144.43;59.78
37486;BME280;23341;50.296;18.960;2023-02-28T17:16:52;46695.34;;;-144.43;60.24
37486;BME280;23341;50.296;18.960;2023-02-28T17:21:57;46677.38;;;-144.43;61.09
37486;BME280;23341;50.296;18.960;2023-02-28T17:27:03;46683.38;;;-144.43;60.75
37486;BME280;23341;50.296;18.960;2023-02-28T17:32:07;46685.38;;;-144.43;60.55
37486;BME280;23341;50.296;18.960;2023-02-28T17:37:20;46665.38;;;-144.43;61.11
37486;BME280;23341;50.296;18.960;2023-02-28T17:42:26;46693.34;;;-144.43;61.99
37486;BME280;23341;50.296;18.960;2023-02-28T17:47:30;46677.38;;;-144.43;62.73
37486;BME280;23341;50.296;18.960;2023-02-28T17:52:34;46709.31;;;-144.43;61.79
37486;BME280;23341;50.296;18.960;2023-02-28T17:57:41;46713.31;;;-144.43;62.79
37486;BME280;23341;50.296;18.960;2023-02-28T18:02:45;46677.38;;;-144.43;64.04
37486;BME280;23341;50.296;18.960;2023-02-28T18:07:50;46727.31;;;-144.43;63.25
37486;BME280;23341;50.296;18.960;2023-02-28T18:12:56;46735.28;;;-144.43;63.69
37486;BME280;23341;50.296;18.960;2023-02-28T18:18:02;46705.34;;;-144.43;63.45
37486;BME280;23341;50.296;18.960;2023-02-28T18:23:07;46741.28;;;-144.43;63.54
37486;BME280;23341;50.296;18.960;2023-02-28T18:28:13;46659.41;;;-144.43;65.38
37486;BME280;23341;50.296;18.960;2023-02-28T18:33:18;46659.41;;;-144.43;65.60
37486;BME280;23341;50.296;18.960;2023-02-28T18:38:23;46643.41;;;-144.43;66.17
37486;BME280;23341;50.296;18.960;2023-02-28T18:43:32;46645.41;;;-144.43;67.04
37486;BME280;23341;50.296;18.960;2023-02-28T18:48:37;46649.41;;;-144.43;67.21
37486;BME280;23341;50.296;18.960;2023-02-28T18:53:42;46641.41;;;-144.43;67.32
37486;BME280;23341;50.296;18.960;2023-02-28T18:58:48;46665.38;;;-144.43;68.99
37486;BME280;23341;50.296;18.960;2023-02-28T19:03:52;46629.44;;;-144.43;69.74
37486;BME280;23341;50.296;18.960;2023-02-28T19:08:58;46601.47;;;-144.43;71.14
37486;BME280;23341;50.296;18.960;2023-02-28T19:14:05;46609.47;;;-144.43;70.50
37486;BME280;23341;50.296;18.960;2023-02-28T19:19:11;46599.47;;;-144.43;72.04
37486;BME280;23341;50.296;18.960;2023-02-28T19:24:15;46581.50;;;-144.43;72.82
37486;BME280;23341;50.296;18.960;2023-02-28T19:29:23;46581.50;;;-144.43;73.17
37486;BME280;23341;50.296;18.960;2023-02-28T19:34:27;46573.50;;;-144.43;73.72
37486;BME280;23341;50.296;18.960;2023-02-28T19:39:32;46571.53;;;-144.43;73.39
37486;BME280;23341;50.296;18.960;2023-02-28T19:44:45;46577.50;;;-144.43;73.80
37486;BME280;23341;50.296;18.960;2023-02-28T19:49:49;46557.53;;;-144.43;74.47
37486;BME280;23341;50.296;18.960;2023-02-28T19:54:56;46547.56;;;-144.43;75.41
37486;BME280;23341;50.296;18.960;2023-02-28T20:00:03;46531.56;;;-144.43;75.62
37486;BME280;23341;50.296;18.960;2023-02-28T20:05:13;46539.56;;;-144.43;75.50
37486;BME280;23341;50.296;18.960;2023-02-28T20:10:18;46541.56;;;-144.43;75.59
37486;BME280;23341;50.296;18.960;2023-02-28T20:15:25;46541.56;;;-144.43;76.04
37486;BME280;23341;50.296;18.960;2023-02-28T20:20:30;46513.59;;;-144.43;77.06
37486;BME280;23341;50.296;18.960;2023-02-28T20:25:38;46501.63;;;-144.43;77.16
37486;BME280;23341;50.296;18.960;2023-02-28T20:30:45;46497.63;;;-144.43;76.91
37486;BME280;23341;50.296;18.960;2023-02-28T20:35:57;46501.63;;;-144.43;77.37
37486;BME280;23341;50.296;18.960;2023-02-28T20:41:02;46493.63;;;-144.43;77.83
37486;BME280;23341;50.296;18.960;2023-02-28T20:46:09;46477.66;;;-144.43;77.98
37486;BME280;23341;50.296;18.960;2023-02-28T20:51:14;46479.66;;;-144.43;77.34
37486;BME280;23341;50.296;18.960;2023-02-28T20:56:20;46489.63;;;-144.43;77.58
37486;BME280;23341;50.296;18.960;2023-02-28T21:01:28;46497.63;;;-144.43;77.96
37486;BME280;23341;50.296;18.960;2023-02-28T21:06:34;46453.69;;;-144.43;78.79
37486;BME280;23341;50.296;18.960;2023-02-28T21:11:41;46473.66;;;-144.43;78.87
37486;BME280;23341;50.296;18.960;2023-02-28T21:16:47;46449.69;;;-144.43;79.10
37486;BME280;23341;50.296;18.960;2023-02-28T21:21:53;46475.66;;;-144.43;79.37
37486;BME280;23341;50.296;18.960;2023-02-28T21:26:57;46429.72;;;-144.43;80.02
37486;BME280;23341;50.296;18.960;2023-02-28T21:32:05;46445.69;;;-144.43;80.25
37486;BME280;23341;50.296;18.960;2023-02-28T21:37:10;46435.72;;;-144.43;80.37
37486;BME280;23341;50.296;18.960;2023-02-28T21:42:14;46449.69;;;-144.43;79.92
37486;BME280;23341;50.296;18.960;2023-02-28T21:47:20;46429.72;;;-144.43;81.06
37486;BME280;23341;50.296;18.960;2023-02-28T21:52:25;46421.72;;;-144.43;81.64
37486;BME280;23341;50.296;18.960;2023-02-28T21:57:29;46395.75;;;-144.43;81.84
37486;BME280;23341;50.296;18.960;2023-02-28T22:02:35;46385.78;;;-144.43;82.28
37486;BME280;23341;50.296;18.960;2023-02-28T22:07:40;46405.75;;;-144.43;81.77
37486;BME280;23341;50.296;18.960;2023-02-28T22:12:44;46353.81;;;-144.43;83.22
37486;BME280;23341;50.296;18.960;2023-02-28T22:17:50;46343.84;;;-144.43;83.71
37486;BME280;23341;50.296;18.960;2023-02-28T22:22:54;46373.78;;;-144.43;83.47
37486;BME280;23341;50.296;18.960;2023-02-28T22:27:58;46353.81;;;-144.43;84.08
37486;BME280;23341;50.296;18.960;2023-02-28T22:33:04;46311.88;;;-144.43;84.27
37486;BME280;23341;50.296;18.960;2023-02-28T22:38:08;46337.84;;;-144.43;84.08
37486;BME280;23341;50.296;18.960;2023-02-28T22:43:13;46315.88;;;-144.43;84.67
37486;BME280;23341;50.296;18.960;2023-02-28T22:48:19;46327.88;;;-144.43;84.64
37486;BME280;23341;50.296;18.960;2023-02-28T22:53:23;46313.88;;;-144.43;85.51
37486;BME280;23341;50.296;18.960;2023-02-28T22:58:28;46289.91;;;-144.43;85.57
37486;BME280;23341;50.296;18.960;2023-02-28T23:03:34;46287.91;;;-144.43;86.78
37486;BME280;23341;50.296;18.960;2023-02-28T23:08:39;46216.03;;;-144.43;88.85
37486;BME280;23341;50.296;18.960;2023-02-28T23:13:43;46182.06;;;-144.43;90.38
37486;BME280;23341;50.296;18.960;2023-02-28T23:19:03;46120.16;;;-144.43;90.72
37486;BME280;23341;50.296;18.960;2023-02-28T23:24:08;46062.25;;;-144.43;90.43
37486;BME280;23341;50.296;18.960;2023-02-28T23:29:15;46078.22;;;-144.43;90.63
37486;BME280;23341;50.296;18.960;2023-02-28T23:34:21;46034.31;;;-144.43;89.92
37486;BME280;23341;50.296;18.960;2023-02-28T23:39:28;46016.31;;;-144.43;90.34
37486;BME280;23341;50.296;18.960;2023-02-28T23:44:33;46032.31;;;-144.43;90.38
37486;BME280;23341;50.296;18.960;2023-02-28T23:49:39;46002.34;;;-144.43;89.41
37486;BME280;23341;50.296;18.960;2023-02-28T23:54:43;46048.28;;;-144.43;88.98
37486;BME280;23341;50.296;18.960;2023-02-28T23:59:48;46060.25;;;-144.43;88.30
